Latest Weather Observations for Blackall

IDQ60801

Issued at 11:22 am EST Thursday 1 October 2020 (issued every 10 minutes, with the page automatically refreshed every 10 minutes)

About weather observations | Map of weather stations | Latest weather observations for QLD | Other Formats
Station Details ID: 036034 Name: BLACKALL AIRPORT Lat: -24.43 Lon: 145.43 Height: 281.3 m
Data from the previous 72 hours. | See also: Recent months at Blackall
Date/Time
EST
Temp
°C
App
Temp
°C
Dew
Point
°C
Rel
Hum
%
Delta-T
°C
Wind Press
QNH
hPa
Press
MSL
hPa
Rain since
9am
mm
Dir  Spd
km/h
Gust
km/h
Spd
kts
Gust
kts
01/11:00am 26.7 23.9 11.2 38 8.9 NNW 17 28 9 15 1019.4 1017.9 0.0
01/10:30am 26.1 24.1 11.5 40 8.4 N 13 20 7 11 1019.4 1017.9 0.0
01/10:00am 25.6 22.9 11.7 42 8.0 NNE 17 26 9 14 1019.7 1018.3 0.0
01/09:30am 24.7 21.5 12.0 45 7.3 NNE 20 33 11 18 1019.7 1018.7 0.0
01/09:00am 23.0 18.7 10.8 46 6.8 NNE 24 33 13 18 1019.7 1018.7 0.0
01/08:30am 22.6 18.7 10.7 47 6.6 NE 22 32 12 17 1019.6 1018.6 0.0
01/08:00am 21.7 17.6 10.2 48 6.3 NE 22 28 12 15 1019.4 1018.4 0.0
01/07:30am 21.1 17.5 10.0 49 6.1 ENE 19 26 10 14 1019.1 1018.1 0.0
01/07:00am 20.3 17.9 10.1 52 5.6 ENE 13 17 7 9 1018.7 1017.7 0.0
01/06:30am 18.0 16.6 10.9 63 3.9 ENE 9 11 5 6 1018.2 1017.2 0.0
01/06:00am 16.3 15.1 9.5 64 3.6 NE 6 7 3 4 1017.6 1016.6 0.0
01/05:30am 16.9 16.6 8.8 59 4.2 CALM 0 0 0 0 1017.2 1016.2 0.0
01/05:00am 18.9 17.5 8.8 52 5.3 WNW 6 9 3 5 1016.7 1015.7 0.0
01/04:30am 19.8 16.8 9.1 50 5.7 NNE 15 20 8 11 1015.8 1014.8 0.0
01/04:00am 20.6 17.1 8.9 47 6.3 NNE 17 26 9 14 1015.3 1014.3 0.0
01/03:30am 21.4 17.6 9.0 45 6.7 NNE 19 28 10 15 1014.9 1013.8 0.0
01/03:00am 21.7 17.8 9.3 45 6.7 NNE 20 30 11 16 1014.5 1013.4 0.0
01/02:30am 21.7 18.4 9.6 46 6.6 NNE 17 24 9 13 1014.4 1013.3 0.0
01/02:00am 21.0 18.9 9.9 49 6.1 NNE 11 17 6 9 1014.5 1013.4 0.0
01/01:30am 20.7 19.0 9.9 50 5.9 NE 9 11 5 6 1014.6 1013.5 0.0
01/01:00am 20.4 18.3 9.9 51 5.7 NE 11 13 6 7 1014.7 1013.6 0.0
01/12:30am 20.9 19.3 10.1 50 5.9 NE 9 11 5 6 1014.8 1013.7 0.0
01/12:00am 21.3 19.3 10.2 49 6.1 NE 11 13 6 7 1014.8 1013.7 0.0
 
Date/Time
EST
Temp
°C
App
Temp
°C
Dew
Point
°C
Rel
Hum
%
Delta-T
°C
Wind Press
QNH
hPa
Press
MSL
hPa
Rain since
9am
mm
Dir  Spd
km/h
Gust
km/h
Spd
kts
Gust
kts
30/11:30pm 21.5 19.9 10.3 49 6.2 ENE 9 13 5 7 1014.9 1013.8 0.0
30/11:00pm 21.9 19.9 10.1 47 6.5 NE 11 13 6 7 1014.9 1013.8 0.0
30/10:30pm 22.6 20.2 10.1 45 6.9 ENE 13 17 7 9 1014.9 1013.8 0.0
30/10:00pm 23.5 20.6 9.5 41 7.7 ENE 15 20 8 11 1014.9 1013.8 0.0
30/09:30pm 23.4 20.8 9.4 41 7.7 ENE 13 15 7 8 1014.7 1013.6 0.0
30/09:00pm 23.1 21.2 9.1 41 7.6 ENE 9 11 5 6 1014.5 1013.4 0.0
30/08:30pm 23.4 21.2 9.4 41 7.7 ENE 11 13 6 7 1014.4 1013.3 0.0
30/08:00pm 23.7 22.2 9.3 40 7.9 ENE 7 11 4 6 1014.3 1013.2 0.0
30/07:30pm 24.6 22.9 9.7 39 8.3 ENE 9 11 5 6 1014.0 1013.0 0.0
30/07:00pm 25.5 23.6 8.9 35 9.1 NE 9 11 5 6 1013.6 1012.6 0.0
30/06:30pm 26.3 25.0 9.2 34 9.5 N 6 7 3 4 1013.3 1012.3 0.0
30/06:00pm 28.2 26.3 9.0 30 10.7 NNW 9 15 5 8 1013.0 1012.0 0.0
30/05:30pm 29.3 26.1 8.4 27 11.6 N 15 28 8 15 1012.7 1011.7 0.0
30/05:00pm 29.9 25.8 7.8 25 12.2 NNW 19 32 10 17 1012.6 1011.6 0.0
30/04:30pm 29.8 26.3 8.8 27 11.8 N 17 28 9 15 1012.5 1011.5 0.0
30/04:00pm 30.2 26.8 9.1 27 11.9 N 17 26 9 14 1012.5 1011.5 0.0
30/03:30pm 29.7 25.8 9.3 28 11.5 N 20 33 11 18 1012.6 1011.6 0.0
30/03:00pm 30.0 26.6 10.5 30 11.3 N 19 30 10 16 1012.8 1011.8 0.0
30/02:30pm 29.0 25.2 9.7 30 10.9 N 20 43 11 23 1013.5 1012.5 0.0
30/02:00pm 28.4 24.8 10.6 33 10.2 NNE 20 32 11 17 1014.0 1013.0 0.0
30/01:30pm 28.0 23.3 10.7 34 9.9 N 26 37 14 20 1014.6 1013.5 0.0
30/01:00pm 27.2 21.8 10.8 36 9.4 N 30 43 16 23 1015.1 1014.1 0.0
30/12:36pm 26.6 21.4 10.3 36 9.2 NNE 28 46 15 25 1015.6 1014.6 0.0
30/12:30pm 26.6 21.5 10.7 37 9.1 N 28 41 15 22 1015.7 1014.7 0.0
30/12:00pm 26.2 21.0 10.4 37 8.9 N 28 43 15 23 1016.4 1015.4 0.0
30/11:48am 26.3 21.0 11.2 38 8.7 NNE 30 50 16 27 1016.3 1015.3 0.0
30/11:30am 25.9 20.7 11.6 40 8.2 N 30 41 16 22 1016.9 1015.9 0.0
30/11:00am 25.0 20.2 11.6 43 7.7 NNE 28 43 15 23 1017.3 1016.3 0.0
30/10:30am 24.3 18.6 11.3 44 7.4 NNE 32 44 17 24 1017.6 1016.6 0.0
30/10:00am 23.4 17.6 11.5 47 6.8 N 33 48 18 26 1018.0 1016.9 0.0
30/09:34am 23.2 18.2 12.2 50 6.3 NNE 30 50 16 27 1018.3 1017.3 0.0
30/09:30am 22.8 17.9 12.4 52 6.0 NNE 30 43 16 23 1018.3 1017.3 0.0
30/09:00am 21.7 16.2 12.3 55 5.4 NNE 33 50 18 27 1018.5 1017.5 -
30/08:55am 21.7 16.3 12.3 55 5.4 NNE 32 50 17 27 1018.6 1017.6 -
30/08:30am 21.2 15.9 12.6 58 4.9 NNE 32 44 17 24 1018.5 1017.5 -
30/08:00am 20.0 14.5 12.0 60 4.5 NNE 32 44 17 24 1018.4 1017.4 -
30/07:30am 18.8 14.6 12.5 67 3.6 NNE 26 39 14 21 1018.1 1017.1 -
30/07:00am 18.1 14.3 12.5 70 3.2 NE 24 32 13 17 1017.9 1016.8 -
30/06:30am 17.8 14.8 12.5 71 3.0 NE 20 30 11 16 1018.0 1016.9 -
30/06:00am 17.6 14.6 12.7 73 2.8 NNE 20 26 11 14 1017.7 1016.7 -
30/05:30am 18.6 15.6 11.9 65 3.7 NE 19 26 10 14 1018.2 1017.2 -
30/05:00am 19.9 18.1 10.9 56 5.0 N 11 19 6 10 1018.8 1017.8 -
30/04:30am 19.9 18.9 11.1 57 4.9 ENE 7 9 4 5 1017.7 1016.7 -
30/04:00am 20.0 16.2 11.2 57 4.9 NNE 22 30 12 16 1016.6 1015.6 -
30/03:30am 20.9 14.7 10.1 50 5.9 NNE 33 44 18 24 1015.3 1014.3 -
30/03:00am 20.8 15.2 10.3 51 5.8 NNE 30 44 16 24 1015.2 1014.2 0.0
30/02:44am 21.4 15.3 10.3 49 6.1 NNE 33 59 18 32 1015.0 1014.0 -
30/02:30am 21.5 15.9 10.0 48 6.3 NNE 30 44 16 24 1015.1 1014.1 -
30/02:01am 22.3 16.8 9.1 43 7.2 NNE 28 46 15 25 1015.0 1014.0 -
30/02:00am 22.2 16.7 9.0 43 7.1 NNE 28 39 15 21 1015.0 1014.0 -
30/01:30am 22.8 17.1 8.5 40 7.7 NNE 28 46 15 25 1014.9 1013.8 -
30/01:28am 22.7 17.0 8.4 40 7.7 NNE 28 46 15 25 1014.9 1013.8 -
30/01:00am 22.6 18.3 8.0 39 7.8 NE 20 30 11 16 1015.1 1014.1 -
30/12:30am 22.7 18.6 8.0 39 7.8 NE 19 28 10 15 1015.4 1014.4 -
30/12:00am 23.0 18.7 7.9 38 8.0 NE 20 28 11 15 1015.6 1014.6 -
 
Date/Time
EST
Temp
°C
App
Temp
°C
Dew
Point
°C
Rel
Hum
%
Delta-T
°C
Wind Press
QNH
hPa
Press
MSL
hPa
Rain since
9am
mm
Dir  Spd
km/h
Gust
km/h
Spd
kts
Gust
kts
29/11:30pm 22.8 19.1 8.1 39 7.8 NE 17 22 9 12 1015.8 1014.8 -
29/11:00pm 22.9 18.9 8.2 39 7.9 NE 19 26 10 14 1015.9 1014.9 -
29/10:30pm 23.2 19.3 8.5 39 7.9 ENE 19 28 10 15 1016.0 1015.0 -
29/10:00pm 23.3 19.3 8.2 38 8.1 NE 19 26 10 14 1016.2 1015.2 -
29/09:30pm 23.4 19.4 8.3 38 8.1 ENE 19 26 10 14 1016.2 1015.2 -
29/09:00pm 23.9 20.6 7.9 36 8.6 ENE 15 20 8 11 1016.2 1015.2 0.0
29/08:30pm 24.3 21.4 8.3 36 8.6 ENE 13 19 7 10 1015.9 1014.9 -
29/08:00pm 23.8 21.0 8.6 38 8.2 ENE 13 15 7 8 1015.9 1014.9 -
29/07:30pm 24.1 21.7 8.5 37 8.4 ENE 11 13 6 7 1015.8 1014.8 -
29/07:00pm 24.9 22.8 8.4 35 9.0 NE 9 11 5 6 1015.7 1014.7 -
29/06:30pm 26.0 23.6 8.5 33 9.6 NE 11 15 6 8 1015.5 1014.5 -
29/06:00pm 27.3 24.8 8.2 30 10.5 NE 11 17 6 9 1015.0 1014.0 -
29/05:30pm 28.7 25.9 8.4 28 11.2 NE 13 17 7 9 1014.9 1013.8 -
29/05:00pm 29.0 26.5 8.1 27 11.5 NE 11 17 6 9 1014.7 1013.6 -
29/04:30pm 29.4 27.0 10.0 30 11.1 NE 13 22 7 12 1014.7 1013.6 -
29/04:00pm 29.6 28.0 10.2 30 11.1 N 9 13 5 7 1014.6 1013.5 -
29/03:30pm 29.3 26.3 9.4 29 11.2 NNE 15 24 8 13 1014.5 1013.4 -
29/03:00pm 28.7 25.9 11.3 34 10.1 NNE 17 24 9 13 1014.5 1013.4 -
29/02:30pm 29.1 25.8 11.6 33 10.2 NE 20 39 11 21 1014.7 1013.6 -
29/02:00pm 28.6 25.5 12.1 36 9.7 NNE 20 39 11 21 1015.5 1014.5 -
29/01:30pm 28.7 25.3 12.6 37 9.5 NNE 22 39 12 21 1016.2 1015.2 -
29/01:00pm 28.2 24.4 12.5 37 9.3 N 24 39 13 21 1016.9 1015.9 -
29/12:30pm 27.0 22.4 12.3 40 8.6 NNE 28 39 15 21 1017.5 1016.5 -
29/12:00pm 26.8 22.5 13.2 43 8.1 NNE 28 37 15 20 1018.1 1017.1 -
29/11:30am 26.3 21.6 13.1 44 7.8 NE 30 43 16 23 1018.7 1017.7 -
29/10:00am 24.8 20.7 13.7 50 6.6 NE 28 39 15 21 1019.8 1018.8 0.0
29/09:30am 23.9 19.6 13.2 51 6.3 NE 28 37 15 20 1020.0 1019.0 0.0
29/09:00am 23.1 18.8 13.3 54 5.7 NE 28 41 15 22 1020.2 1019.2 0.0
29/08:30am 22.3 17.6 13.1 56 5.3 NE 30 39 16 21 1020.2 1019.2 0.0
29/08:00am 21.6 18.0 13.0 58 5.0 NE 24 35 13 19 1020.1 1019.1 0.0
29/07:30am 19.8 16.3 10.8 56 5.0 NE 20 24 11 13 1019.7 1018.7 0.0
29/07:00am 18.1 15.3 8.4 53 5.1 ENE 13 19 7 10 1019.3 1018.3 0.0
29/06:30am 15.7 12.1 3.2 43 5.8 E 11 13 6 7 1018.8 1017.8 0.0
29/06:00am 15.0 11.2 1.9 41 5.8 E 11 13 6 7 1018.2 1017.2 0.0
29/05:30am 15.4 11.0 0.4 36 6.5 E 13 17 7 9 1017.4 1016.4 0.0
29/05:00am 15.1 10.9 -1.0 33 6.8 E 11 15 6 8 1017.0 1016.0 0.0
29/04:30am 15.2 11.3 -1.8 31 7.0 ESE 9 13 5 7 1017.0 1016.0 0.0
29/04:00am 15.9 11.2 -2.1 29 7.4 ESE 13 15 7 8 1017.0 1016.0 0.0
29/03:30am 16.1 11.8 -1.9 29 7.5 ESE 11 15 6 8 1017.1 1016.1 0.0
29/03:00am 15.8 11.5 -1.3 31 7.2 ESE 11 13 6 7 1017.2 1016.2 0.0
29/02:30am 15.7 11.8 -1.8 30 7.3 SE 9 13 5 7 1017.3 1016.3 0.0
29/02:00am 16.5 12.2 -2.0 28 7.7 SSE 11 15 6 8 1017.6 1016.6 0.0
29/01:30am 17.2 12.4 -2.4 26 8.2 SSE 13 15 7 8 1017.9 1016.8 0.0
29/01:00am 17.6 12.8 -2.6 25 8.4 SSE 13 17 7 9 1018.2 1017.2 0.0
29/12:30am 17.9 13.1 -2.9 24 8.6 SSE 13 17 7 9 1018.7 1017.7 0.0
29/12:00am 18.2 13.4 -2.7 24 8.7 SSE 13 15 7 8 1019.1 1018.1 0.0
 
Date/Time
EST
Temp
°C
App
Temp
°C
Dew
Point
°C
Rel
Hum
%
Delta-T
°C
Wind Press
QNH
hPa
Press
MSL
hPa
Rain since
9am
mm
Dir  Spd
km/h
Gust
km/h
Spd
kts
Gust
kts
28/11:30pm 18.0 13.2 -2.8 24 8.7 SE 13 15 7 8 1019.1 1018.1 0.0
28/11:00pm 18.4 13.5 -3.1 23 8.9 SSE 13 17 7 9 1019.4 1018.4 0.0
28/10:30pm 19.7 14.8 -3.2 21 9.6 SSE 13 17 7 9 1019.4 1018.4 0.0
28/10:00pm 19.8 15.0 -2.5 22 9.5 SE 13 17 7 9 1019.4 1018.4 0.0
28/09:30pm 20.7 15.9 -2.4 21 9.9 SE 13 17 7 9 1019.2 1018.2 0.0
28/09:00pm 22.0 16.8 -2.7 19 10.7 SE 15 20 8 11 1018.9 1017.9 0.0
28/08:30pm 23.3 17.8 -2.3 18 11.3 SSE 17 24 9 13 1018.7 1017.7 0.0
28/08:00pm 23.4 18.9 -0.1 21 10.8 S 13 17 7 9 1018.4 1017.4 0.0
28/07:30pm 23.4 19.3 2.3 25 10.2 S 13 15 7 8 1018.1 1017.1 0.0
28/07:00pm 24.0 20.7 2.2 24 10.5 SSE 9 11 5 6 1017.5 1016.5 0.0
28/06:30pm 25.0 21.7 2.4 23 11.0 S 9 11 5 6 1017.3 1016.3 0.0
28/06:00pm 27.4 25.1 0.2 17 12.9 S 2 7 1 4 1016.7 1015.7 0.0
28/05:30pm 28.4 24.7 0.2 16 13.5 SE 9 15 5 8 1016.4 1015.4 0.0
28/05:00pm 29.3 26.2 0.0 15 14.1 SW 6 9 3 5 1016.1 1015.1 0.0
28/04:30pm 29.2 26.1 -0.1 15 14.1 W 6 13 3 7 1016.1 1015.1 0.0
28/04:00pm 29.4 26.3 0.1 15 14.1 S 6 17 3 9 1016.1 1015.1 0.0
28/03:30pm 28.8 25.6 0.5 16 13.7 NE 7 17 4 9 1016.2 1015.2 0.0
28/03:00pm 28.9 26.6 0.6 16 13.7 ESE 2 9 1 5 1016.4 1015.4 0.0
28/02:30pm 28.8 25.3 1.3 17 13.5 NNW 9 15 5 8 1016.9 1015.9 0.0
28/02:00pm 28.9 25.3 3.0 19 13.1 N 11 17 6 9 1017.4 1016.4 0.0
28/01:30pm 28.8 26.1 3.6 20 12.9 NNW 7 13 4 7 1018.0 1016.9 0.0
28/01:00pm 27.3 24.4 4.4 23 11.7 NNW 9 20 5 11 1018.4 1017.4 0.0
28/12:30pm 26.8 24.2 4.0 23 11.6 N 7 19 4 10 1018.8 1017.8 0.0
28/12:00pm 26.7 23.2 5.6 26 11.0 NNE 13 24 7 13 1019.4 1018.4 0.0
28/11:30am 26.0 23.5 6.6 29 10.3 E 9 20 5 11 1019.9 1018.9 0.0

Other formats

Comma delimited format used in spreadsheet applications
http://www.bom.gov.au/fwo/IDQ60801/IDQ60801.95351.axf

JavaScript Object Notation format (JSON) in row-major order
http://www.bom.gov.au/fwo/IDQ60801/IDQ60801.95351.json

Data quality

Most of these data are generated automatically and are frequently updated. Quality checks on data are not normally performed. It is possible for incorrect values to appear. Refer to information at About Latest Weather Observations and please check the disclaimer before using these data.